sensor_id;sensor_type;location;lat;lon;timestamp;P1;durP1;ratioP1;P2;durP2;ratioP2
40953;SDS011;26686;50.130;8.710;2023-02-28T00:02:46;3.53;;;2.92;;
40953;SDS011;26686;50.130;8.710;2023-02-28T00:07:48;2.92;;;2.63;;
40953;SDS011;26686;50.130;8.710;2023-02-28T00:12:51;3.30;;;3.00;;
40953;SDS011;26686;50.130;8.710;2023-02-28T00:17:52;5.25;;;3.38;;
40953;SDS011;26686;50.130;8.710;2023-02-28T00:22:54;4.68;;;3.75;;
40953;SDS011;26686;50.130;8.710;2023-02-28T00:27:57;4.15;;;3.58;;
40953;SDS011;26686;50.130;8.710;2023-02-28T00:32:58;4.18;;;3.22;;
40953;SDS011;26686;50.130;8.710;2023-02-28T00:38:00;3.45;;;3.15;;
40953;SDS011;26686;50.130;8.710;2023-02-28T00:43:03;3.78;;;3.47;;
40953;SDS011;26686;50.130;8.710;2023-02-28T00:48:05;4.03;;;3.63;;
40953;SDS011;26686;50.130;8.710;2023-02-28T00:53:07;3.05;;;2.75;;
40953;SDS011;26686;50.130;8.710;2023-02-28T00:58:09;3.40;;;3.10;;
40953;SDS011;26686;50.130;8.710;2023-02-28T01:03:10;3.72;;;3.17;;
40953;SDS011;26686;50.130;8.710;2023-02-28T01:08:12;3.78;;;3.20;;
40953;SDS011;26686;50.130;8.710;2023-02-28T01:13:15;3.33;;;3.03;;
40953;SDS011;26686;50.130;8.710;2023-02-28T01:18:17;3.15;;;2.85;;
40953;SDS011;26686;50.130;8.710;2023-02-28T01:23:19;3.17;;;2.88;;
40953;SDS011;26686;50.130;8.710;2023-02-28T01:28:22;3.53;;;3.22;;
40953;SDS011;26686;50.130;8.710;2023-02-28T01:33:24;3.90;;;3.53;;
40953;SDS011;26686;50.130;8.710;2023-02-28T01:38:26;4.13;;;3.08;;
40953;SDS011;26686;50.130;8.710;2023-02-28T01:43:39;4.00;;;3.60;;
40953;SDS011;26686;50.130;8.710;2023-02-28T01:54:02;3.45;;;3.17;;
40953;SDS011;26686;50.130;8.710;2023-02-28T01:59:17;3.60;;;3.30;;
40953;SDS011;26686;50.130;8.710;2023-02-28T02:04:26;4.25;;;3.85;;
40953;SDS011;26686;50.130;8.710;2023-02-28T02:09:34;3.17;;;2.88;;
40953;SDS011;26686;50.130;8.710;2023-02-28T02:20:29;2.85;;;2.65;;
40953;SDS011;26686;50.130;8.710;2023-02-28T02:42:01;3.90;;;3.53;;
40953;SDS011;26686;50.130;8.710;2023-02-28T02:47:12;3.17;;;2.88;;
40953;SDS011;26686;50.130;8.710;2023-02-28T02:52:18;3.33;;;3.05;;
40953;SDS011;26686;50.130;8.710;2023-02-28T02:57:36;2.80;;;2.53;;
40953;SDS011;26686;50.130;8.710;2023-02-28T03:02:49;3.10;;;2.90;;
40953;SDS011;26686;50.130;8.710;2023-02-28T03:07:54;3.20;;;2.90;;
40953;SDS011;26686;50.130;8.710;2023-02-28T03:13:00;3.33;;;2.60;;
40953;SDS011;26686;50.130;8.710;2023-02-28T03:18:24;3.42;;;3.13;;
40953;SDS011;26686;50.130;8.710;2023-02-28T03:28:47;2.58;;;2.25;;
40953;SDS011;26686;50.130;8.710;2023-02-28T03:34:19;3.05;;;2.72;;
40953;SDS011;26686;50.130;8.710;2023-02-28T03:39:33;3.55;;;2.65;;
40953;SDS011;26686;50.130;8.710;2023-02-28T03:44:46;3.80;;;2.47;;
40953;SDS011;26686;50.130;8.710;2023-02-28T03:55:09;2.70;;;2.50;;
40953;SDS011;26686;50.130;8.710;2023-02-28T04:00:19;3.28;;;2.83;;
40953;SDS011;26686;50.130;8.710;2023-02-28T04:05:23;2.90;;;2.63;;
40953;SDS011;26686;50.130;8.710;2023-02-28T04:10:25;2.58;;;2.38;;
40953;SDS011;26686;50.130;8.710;2023-02-28T04:15:27;2.67;;;2.38;;
40953;SDS011;26686;50.130;8.710;2023-02-28T04:20:28;3.55;;;3.10;;
40953;SDS011;26686;50.130;8.710;2023-02-28T04:25:30;3.70;;;2.63;;
40953;SDS011;26686;50.130;8.710;2023-02-28T04:30:31;3.58;;;2.90;;
40953;SDS011;26686;50.130;8.710;2023-02-28T04:35:33;4.32;;;2.60;;
40953;SDS011;26686;50.130;8.710;2023-02-28T04:40:35;2.72;;;2.53;;
40953;SDS011;26686;50.130;8.710;2023-02-28T04:45:36;3.28;;;2.55;;
40953;SDS011;26686;50.130;8.710;2023-02-28T04:50:38;3.10;;;2.88;;
40953;SDS011;26686;50.130;8.710;2023-02-28T04:55:40;4.50;;;2.60;;
40953;SDS011;26686;50.130;8.710;2023-02-28T05:00:41;3.22;;;2.63;;
40953;SDS011;26686;50.130;8.710;2023-02-28T05:05:43;3.13;;;2.83;;
40953;SDS011;26686;50.130;8.710;2023-02-28T05:10:44;3.17;;;2.70;;
40953;SDS011;26686;50.130;8.710;2023-02-28T05:15:46;3.08;;;2.50;;
40953;SDS011;26686;50.130;8.710;2023-02-28T05:20:48;2.67;;;2.47;;
40953;SDS011;26686;50.130;8.710;2023-02-28T05:25:50;2.67;;;2.22;;
40953;SDS011;26686;50.130;8.710;2023-02-28T05:30:53;2.70;;;2.30;;
40953;SDS011;26686;50.130;8.710;2023-02-28T05:35:55;2.55;;;2.30;;
40953;SDS011;26686;50.130;8.710;2023-02-28T05:40:57;4.03;;;3.03;;
40953;SDS011;26686;50.130;8.710;2023-02-28T05:46:01;2.67;;;2.20;;
40953;SDS011;26686;50.130;8.710;2023-02-28T05:51:04;2.30;;;2.10;;
40953;SDS011;26686;50.130;8.710;2023-02-28T05:56:07;2.83;;;2.45;;
40953;SDS011;26686;50.130;8.710;2023-02-28T06:06:37;2.72;;;2.40;;
40953;SDS011;26686;50.130;8.710;2023-02-28T06:11:41;3.08;;;2.80;;
40953;SDS011;26686;50.130;8.710;2023-02-28T06:16:42;2.90;;;2.60;;
40953;SDS011;26686;50.130;8.710;2023-02-28T06:21:44;3.00;;;2.70;;
40953;SDS011;26686;50.130;8.710;2023-02-28T06:26:46;4.53;;;2.97;;
40953;SDS011;26686;50.130;8.710;2023-02-28T06:31:49;4.43;;;3.67;;
40953;SDS011;26686;50.130;8.710;2023-02-28T06:36:51;3.42;;;3.08;;
40953;SDS011;26686;50.130;8.710;2023-02-28T06:41:53;3.72;;;3.40;;
40953;SDS011;26686;50.130;8.710;2023-02-28T06:46:56;4.10;;;2.75;;
40953;SDS011;26686;50.130;8.710;2023-02-28T06:51:58;3.20;;;2.90;;
40953;SDS011;26686;50.130;8.710;2023-02-28T06:56:59;3.53;;;2.92;;
40953;SDS011;26686;50.130;8.710;2023-02-28T07:02:01;3.90;;;3.05;;
40953;SDS011;26686;50.130;8.710;2023-02-28T07:07:04;4.22;;;2.83;;
40953;SDS011;26686;50.130;8.710;2023-02-28T07:12:05;2.88;;;2.67;;
40953;SDS011;26686;50.130;8.710;2023-02-28T07:17:08;4.00;;;3.10;;
40953;SDS011;26686;50.130;8.710;2023-02-28T07:22:12;6.90;;;4.10;;
40953;SDS011;26686;50.130;8.710;2023-02-28T07:27:16;4.43;;;3.55;;
40953;SDS011;26686;50.130;8.710;2023-02-28T07:32:24;5.53;;;3.60;;
40953;SDS011;26686;50.130;8.710;2023-02-28T07:37:26;3.88;;;3.38;;
40953;SDS011;26686;50.130;8.710;2023-02-28T07:42:28;4.55;;;4.15;;
40953;SDS011;26686;50.130;8.710;2023-02-28T07:47:29;4.68;;;3.60;;
40953;SDS011;26686;50.130;8.710;2023-02-28T07:52:32;9.57;;;5.10;;
40953;SDS011;26686;50.130;8.710;2023-02-28T07:57:33;5.53;;;4.43;;
40953;SDS011;26686;50.130;8.710;2023-02-28T08:02:35;69.07;;;12.13;;
40953;SDS011;26686;50.130;8.710;2023-02-28T08:07:37;13.77;;;4.50;;
40953;SDS011;26686;50.130;8.710;2023-02-28T08:12:38;17.05;;;5.25;;
40953;SDS011;26686;50.130;8.710;2023-02-28T08:17:40;5.28;;;4.05;;
40953;SDS011;26686;50.130;8.710;2023-02-28T08:22:42;5.82;;;3.80;;
40953;SDS011;26686;50.130;8.710;2023-02-28T08:27:46;8.98;;;3.72;;
40953;SDS011;26686;50.130;8.710;2023-02-28T08:32:47;9.55;;;4.57;;
40953;SDS011;26686;50.130;8.710;2023-02-28T08:37:50;3.95;;;3.55;;
40953;SDS011;26686;50.130;8.710;2023-02-28T08:42:52;4.13;;;3.40;;
40953;SDS011;26686;50.130;8.710;2023-02-28T08:47:54;3.60;;;3.28;;
40953;SDS011;26686;50.130;8.710;2023-02-28T08:52:56;3.28;;;2.83;;
40953;SDS011;26686;50.130;8.710;2023-02-28T08:57:58;5.00;;;3.10;;
40953;SDS011;26686;50.130;8.710;2023-02-28T09:03:00;4.45;;;3.67;;
40953;SDS011;26686;50.130;8.710;2023-02-28T09:08:01;5.88;;;3.33;;
40953;SDS011;26686;50.130;8.710;2023-02-28T09:13:03;4.40;;;3.67;;
40953;SDS011;26686;50.130;8.710;2023-02-28T09:18:06;4.00;;;3.60;;
40953;SDS011;26686;50.130;8.710;2023-02-28T09:23:08;6.25;;;3.20;;
40953;SDS011;26686;50.130;8.710;2023-02-28T09:28:11;6.53;;;3.38;;
40953;SDS011;26686;50.130;8.710;2023-02-28T09:33:14;3.80;;;3.33;;
40953;SDS011;26686;50.130;8.710;2023-02-28T09:38:16;5.60;;;3.35;;
40953;SDS011;26686;50.130;8.710;2023-02-28T09:43:20;6.50;;;3.38;;
40953;SDS011;26686;50.130;8.710;2023-02-28T09:48:31;4.43;;;3.55;;
40953;SDS011;26686;50.130;8.710;2023-02-28T09:53:41;4.00;;;3.65;;
40953;SDS011;26686;50.130;8.710;2023-02-28T10:09:41;4.18;;;3.78;;
40953;SDS011;26686;50.130;8.710;2023-02-28T10:14:44;4.47;;;3.70;;
40953;SDS011;26686;50.130;8.710;2023-02-28T10:25:22;5.07;;;4.45;;
40953;SDS011;26686;50.130;8.710;2023-02-28T10:30:27;7.32;;;3.30;;
40953;SDS011;26686;50.130;8.710;2023-02-28T10:35:29;4.38;;;3.80;;
40953;SDS011;26686;50.130;8.710;2023-02-28T10:40:32;4.53;;;3.60;;
40953;SDS011;26686;50.130;8.710;2023-02-28T10:45:36;3.95;;;3.63;;
40953;SDS011;26686;50.130;8.710;2023-02-28T10:50:43;5.45;;;4.25;;
40953;SDS011;26686;50.130;8.710;2023-02-28T11:06:20;3.65;;;3.35;;
40953;SDS011;26686;50.130;8.710;2023-02-28T11:11:26;4.15;;;2.80;;
40953;SDS011;26686;50.130;8.710;2023-02-28T11:16:36;3.90;;;3.42;;
40953;SDS011;26686;50.130;8.710;2023-02-28T11:21:41;4.63;;;4.00;;
40953;SDS011;26686;50.130;8.710;2023-02-28T11:26:54;10.63;;;5.47;;
40953;SDS011;26686;50.130;8.710;2023-02-28T11:37:18;5.35;;;3.30;;
40953;SDS011;26686;50.130;8.710;2023-02-28T11:42:27;10.45;;;4.50;;
40953;SDS011;26686;50.130;8.710;2023-02-28T11:53:05;7.28;;;4.38;;
40953;SDS011;26686;50.130;8.710;2023-02-28T12:14:48;3.72;;;3.42;;
40953;SDS011;26686;50.130;8.710;2023-02-28T12:25:18;4.05;;;3.60;;
40953;SDS011;26686;50.130;8.710;2023-02-28T12:30:53;3.70;;;3.35;;
40953;SDS011;26686;50.130;8.710;2023-02-28T12:35:59;4.32;;;3.92;;
40953;SDS011;26686;50.130;8.710;2023-02-28T12:41:17;7.55;;;4.55;;
40953;SDS011;26686;50.130;8.710;2023-02-28T12:46:25;4.80;;;4.30;;
40953;SDS011;26686;50.130;8.710;2023-02-28T12:51:43;8.55;;;4.40;;
40953;SDS011;26686;50.130;8.710;2023-02-28T12:56:55;4.40;;;4.00;;
40953;SDS011;26686;50.130;8.710;2023-02-28T13:13:23;4.25;;;3.80;;
40953;SDS011;26686;50.130;8.710;2023-02-28T13:34:12;5.05;;;3.90;;
40953;SDS011;26686;50.130;8.710;2023-02-28T13:45:18;3.40;;;3.10;;
40953;SDS011;26686;50.130;8.710;2023-02-28T13:50:21;4.28;;;3.70;;
40953;SDS011;26686;50.130;8.710;2023-02-28T14:01:08;3.63;;;3.30;;
40953;SDS011;26686;50.130;8.710;2023-02-28T14:11:40;6.43;;;3.80;;
40953;SDS011;26686;50.130;8.710;2023-02-28T14:16:44;3.97;;;3.60;;
40953;SDS011;26686;50.130;8.710;2023-02-28T14:27:22;8.05;;;4.00;;
40953;SDS011;26686;50.130;8.710;2023-02-28T14:32:47;4.03;;;3.65;;
40953;SDS011;26686;50.130;8.710;2023-02-28T14:37:55;4.28;;;3.95;;
40953;SDS011;26686;50.130;8.710;2023-02-28T14:43:01;5.97;;;3.85;;
40953;SDS011;26686;50.130;8.710;2023-02-28T14:48:08;4.28;;;3.90;;
40953;SDS011;26686;50.130;8.710;2023-02-28T14:53:15;3.90;;;3.60;;
40953;SDS011;26686;50.130;8.710;2023-02-28T15:03:34;4.70;;;4.13;;
40953;SDS011;26686;50.130;8.710;2023-02-28T15:08:40;4.40;;;4.00;;
40953;SDS011;26686;50.130;8.710;2023-02-28T15:13:43;7.90;;;4.25;;
40953;SDS011;26686;50.130;8.710;2023-02-28T15:18:57;4.75;;;4.20;;
40953;SDS011;26686;50.130;8.710;2023-02-28T15:24:05;5.70;;;5.20;;
40953;SDS011;26686;50.130;8.710;2023-02-28T15:29:15;5.90;;;5.20;;
40953;SDS011;26686;50.130;8.710;2023-02-28T15:34:21;8.35;;;6.50;;
40953;SDS011;26686;50.130;8.710;2023-02-28T15:39:41;7.13;;;6.35;;
40953;SDS011;26686;50.130;8.710;2023-02-28T15:44:45;6.32;;;5.70;;
40953;SDS011;26686;50.130;8.710;2023-02-28T15:49:51;5.70;;;5.20;;
40953;SDS011;26686;50.130;8.710;2023-02-28T15:54:55;6.70;;;5.78;;
40953;SDS011;26686;50.130;8.710;2023-02-28T15:59:58;6.10;;;5.50;;
40953;SDS011;26686;50.130;8.710;2023-02-28T16:10:10;7.57;;;5.80;;
40953;SDS011;26686;50.130;8.710;2023-02-28T16:15:22;5.80;;;5.22;;
40953;SDS011;26686;50.130;8.710;2023-02-28T16:20:28;7.43;;;5.65;;
40953;SDS011;26686;50.130;8.710;2023-02-28T16:25:35;15.63;;;7.00;;
40953;SDS011;26686;50.130;8.710;2023-02-28T16:30:40;6.35;;;5.53;;
40953;SDS011;26686;50.130;8.710;2023-02-28T16:35:41;9.93;;;5.75;;
40953;SDS011;26686;50.130;8.710;2023-02-28T16:40:43;7.03;;;5.50;;
40953;SDS011;26686;50.130;8.710;2023-02-28T16:45:45;7.00;;;5.72;;
40953;SDS011;26686;50.130;8.710;2023-02-28T16:50:47;7.10;;;6.28;;
40953;SDS011;26686;50.130;8.710;2023-02-28T16:55:48;6.65;;;5.88;;
40953;SDS011;26686;50.130;8.710;2023-02-28T17:00:52;6.50;;;5.95;;
40953;SDS011;26686;50.130;8.710;2023-02-28T17:05:53;5.80;;;5.30;;
40953;SDS011;26686;50.130;8.710;2023-02-28T17:10:55;6.07;;;5.50;;
40953;SDS011;26686;50.130;8.710;2023-02-28T17:15:57;7.88;;;6.35;;
40953;SDS011;26686;50.130;8.710;2023-02-28T17:20:59;6.68;;;5.95;;
40953;SDS011;26686;50.130;8.710;2023-02-28T17:26:02;6.68;;;5.78;;
40953;SDS011;26686;50.130;8.710;2023-02-28T17:31:05;7.75;;;6.00;;
40953;SDS011;26686;50.130;8.710;2023-02-28T17:36:10;5.85;;;4.82;;
40953;SDS011;26686;50.130;8.710;2023-02-28T17:41:18;6.13;;;5.25;;
40953;SDS011;26686;50.130;8.710;2023-02-28T17:46:21;7.38;;;6.05;;
40953;SDS011;26686;50.130;8.710;2023-02-28T17:51:24;6.20;;;5.63;;
40953;SDS011;26686;50.130;8.710;2023-02-28T17:56:25;6.72;;;5.10;;
40953;SDS011;26686;50.130;8.710;2023-02-28T18:01:28;6.68;;;5.75;;
40953;SDS011;26686;50.130;8.710;2023-02-28T18:06:32;6.30;;;5.65;;
40953;SDS011;26686;50.130;8.710;2023-02-28T18:11:36;7.00;;;5.75;;
40953;SDS011;26686;50.130;8.710;2023-02-28T18:16:42;7.65;;;6.85;;
40953;SDS011;26686;50.130;8.710;2023-02-28T18:21:46;6.70;;;6.10;;
40953;SDS011;26686;50.130;8.710;2023-02-28T18:26:49;9.57;;;7.07;;
40953;SDS011;26686;50.130;8.710;2023-02-28T18:31:52;14.82;;;9.40;;
40953;SDS011;26686;50.130;8.710;2023-02-28T18:36:54;8.30;;;7.00;;
40953;SDS011;26686;50.130;8.710;2023-02-28T18:41:57;7.70;;;6.80;;
40953;SDS011;26686;50.130;8.710;2023-02-28T18:46:59;8.30;;;6.50;;
40953;SDS011;26686;50.130;8.710;2023-02-28T18:52:01;7.70;;;6.80;;
40953;SDS011;26686;50.130;8.710;2023-02-28T18:57:03;7.05;;;6.45;;
40953;SDS011;26686;50.130;8.710;2023-02-28T19:02:07;8.20;;;6.50;;
40953;SDS011;26686;50.130;8.710;2023-02-28T19:07:10;9.63;;;6.93;;
40953;SDS011;26686;50.130;8.710;2023-02-28T19:12:12;7.25;;;6.53;;
40953;SDS011;26686;50.130;8.710;2023-02-28T19:17:14;8.45;;;6.65;;
40953;SDS011;26686;50.130;8.710;2023-02-28T19:22:16;8.02;;;6.97;;
40953;SDS011;26686;50.130;8.710;2023-02-28T19:27:17;7.72;;;6.75;;
40953;SDS011;26686;50.130;8.710;2023-02-28T19:32:19;8.18;;;7.38;;
40953;SDS011;26686;50.130;8.710;2023-02-28T19:37:21;7.15;;;6.55;;
40953;SDS011;26686;50.130;8.710;2023-02-28T19:42:23;7.30;;;6.63;;
40953;SDS011;26686;50.130;8.710;2023-02-28T19:47:25;9.38;;;7.55;;
40953;SDS011;26686;50.130;8.710;2023-02-28T19:52:26;8.95;;;7.60;;
40953;SDS011;26686;50.130;8.710;2023-02-28T19:57:28;9.68;;;7.70;;
40953;SDS011;26686;50.130;8.710;2023-02-28T20:02:29;8.85;;;7.32;;
40953;SDS011;26686;50.130;8.710;2023-02-28T20:07:31;9.40;;;8.35;;
40953;SDS011;26686;50.130;8.710;2023-02-28T20:17:37;8.35;;;7.55;;
40953;SDS011;26686;50.130;8.710;2023-02-28T20:22:42;8.27;;;7.45;;
40953;SDS011;26686;50.130;8.710;2023-02-28T20:27:45;9.02;;;7.13;;
40953;SDS011;26686;50.130;8.710;2023-02-28T20:32:47;9.10;;;8.20;;
40953;SDS011;26686;50.130;8.710;2023-02-28T20:37:49;9.18;;;7.90;;
40953;SDS011;26686;50.130;8.710;2023-02-28T20:42:51;8.88;;;7.97;;
40953;SDS011;26686;50.130;8.710;2023-02-28T20:47:52;9.35;;;8.35;;
40953;SDS011;26686;50.130;8.710;2023-02-28T20:52:54;9.50;;;8.18;;
40953;SDS011;26686;50.130;8.710;2023-02-28T20:57:56;9.68;;;8.20;;
40953;SDS011;26686;50.130;8.710;2023-02-28T21:02:58;9.85;;;8.85;;
40953;SDS011;26686;50.130;8.710;2023-02-28T21:08:00;9.75;;;8.75;;
40953;SDS011;26686;50.130;8.710;2023-02-28T21:13:02;11.25;;;10.10;;
40953;SDS011;26686;50.130;8.710;2023-02-28T21:18:03;9.95;;;9.00;;
40953;SDS011;26686;50.130;8.710;2023-02-28T21:23:05;11.27;;;8.98;;
40953;SDS011;26686;50.130;8.710;2023-02-28T21:28:06;9.73;;;8.82;;
40953;SDS011;26686;50.130;8.710;2023-02-28T21:33:08;11.15;;;9.40;;
40953;SDS011;26686;50.130;8.710;2023-02-28T21:38:09;10.23;;;9.15;;
40953;SDS011;26686;50.130;8.710;2023-02-28T21:43:11;9.75;;;8.75;;
40953;SDS011;26686;50.130;8.710;2023-02-28T21:48:12;9.90;;;8.90;;
40953;SDS011;26686;50.130;8.710;2023-02-28T21:53:14;11.85;;;9.80;;
40953;SDS011;26686;50.130;8.710;2023-02-28T21:58:15;10.75;;;9.65;;
40953;SDS011;26686;50.130;8.710;2023-02-28T22:03:17;10.65;;;9.55;;
40953;SDS011;26686;50.130;8.710;2023-02-28T22:08:18;11.50;;;9.93;;
40953;SDS011;26686;50.130;8.710;2023-02-28T22:13:20;10.50;;;9.50;;
40953;SDS011;26686;50.130;8.710;2023-02-28T22:18:21;12.85;;;10.30;;
40953;SDS011;26686;50.130;8.710;2023-02-28T22:23:23;10.95;;;9.63;;
40953;SDS011;26686;50.130;8.710;2023-02-28T22:28:25;10.40;;;9.30;;
40953;SDS011;26686;50.130;8.710;2023-02-28T22:33:28;12.88;;;10.00;;
40953;SDS011;26686;50.130;8.710;2023-02-28T22:38:29;10.75;;;9.65;;
40953;SDS011;26686;50.130;8.710;2023-02-28T22:43:35;12.55;;;9.77;;
40953;SDS011;26686;50.130;8.710;2023-02-28T22:48:37;11.00;;;9.75;;
40953;SDS011;26686;50.130;8.710;2023-02-28T22:53:40;10.90;;;9.18;;
40953;SDS011;26686;50.130;8.710;2023-02-28T22:58:49;11.18;;;10.05;;
40953;SDS011;26686;50.130;8.710;2023-02-28T23:03:54;11.65;;;10.40;;
40953;SDS011;26686;50.130;8.710;2023-02-28T23:08:59;11.40;;;8.82;;
40953;SDS011;26686;50.130;8.710;2023-02-28T23:14:02;12.27;;;10.20;;
40953;SDS011;26686;50.130;8.710;2023-02-28T23:19:07;11.93;;;10.27;;
40953;SDS011;26686;50.130;8.710;2023-02-28T23:24:11;12.05;;;9.95;;
40953;SDS011;26686;50.130;8.710;2023-02-28T23:29:14;13.93;;;10.13;;
40953;SDS011;26686;50.130;8.710;2023-02-28T23:34:17;11.68;;;10.57;;
40953;SDS011;26686;50.130;8.710;2023-02-28T23:39:27;12.07;;;11.00;;
40953;SDS011;26686;50.130;8.710;2023-02-28T23:44:29;11.80;;;10.43;;
40953;SDS011;26686;50.130;8.710;2023-02-28T23:49:32;13.90;;;10.63;;
40953;SDS011;26686;50.130;8.710;2023-02-28T23:54:33;12.60;;;10.82;;
40953;SDS011;26686;50.130;8.710;2023-02-28T23:59:35;11.40;;;10.30;;
